sensor_id;sensor_type;location;lat;lon;timestamp;P1;durP1;ratioP1;P2;durP2;ratioP2
39050;SDS011;24805;55.852;37.644;2023-01-29T00:03:15;8.52;;;4.80;;
39050;SDS011;24805;55.852;37.644;2023-01-29T00:08:17;7.18;;;4.40;;
39050;SDS011;24805;55.852;37.644;2023-01-29T00:13:20;8.77;;;5.30;;
39050;SDS011;24805;55.852;37.644;2023-01-29T00:18:23;8.68;;;4.90;;
39050;SDS011;24805;55.852;37.644;2023-01-29T00:23:26;12.63;;;7.38;;
39050;SDS011;24805;55.852;37.644;2023-01-29T00:28:28;11.95;;;6.88;;
39050;SDS011;24805;55.852;37.644;2023-01-29T00:33:30;10.05;;;6.47;;
39050;SDS011;24805;55.852;37.644;2023-01-29T00:38:33;10.77;;;7.40;;
39050;SDS011;24805;55.852;37.644;2023-01-29T00:43:35;15.02;;;9.30;;
39050;SDS011;24805;55.852;37.644;2023-01-29T00:48:56;14.85;;;9.23;;
39050;SDS011;24805;55.852;37.644;2023-01-29T00:54:01;12.18;;;7.22;;
39050;SDS011;24805;55.852;37.644;2023-01-29T00:59:07;10.90;;;6.10;;
39050;SDS011;24805;55.852;37.644;2023-01-29T01:04:09;9.07;;;5.72;;
39050;SDS011;24805;55.852;37.644;2023-01-29T01:09:12;4.90;;;2.95;;
39050;SDS011;24805;55.852;37.644;2023-01-29T01:14:35;7.63;;;4.15;;
39050;SDS011;24805;55.852;37.644;2023-01-29T01:19:37;5.88;;;2.95;;
39050;SDS011;24805;55.852;37.644;2023-01-29T01:24:39;8.35;;;3.60;;
39050;SDS011;24805;55.852;37.644;2023-01-29T01:29:41;4.85;;;2.75;;
39050;SDS011;24805;55.852;37.644;2023-01-29T01:34:43;5.57;;;2.90;;
39050;SDS011;24805;55.852;37.644;2023-01-29T01:39:47;5.47;;;2.95;;
39050;SDS011;24805;55.852;37.644;2023-01-29T01:49:52;5.45;;;2.65;;
39050;SDS011;24805;55.852;37.644;2023-01-29T01:54:56;4.28;;;1.92;;
39050;SDS011;24805;55.852;37.644;2023-01-29T02:00:03;4.13;;;2.10;;
39050;SDS011;24805;55.852;37.644;2023-01-29T02:05:19;2.92;;;1.58;;
39050;SDS011;24805;55.852;37.644;2023-01-29T02:10:42;3.78;;;1.88;;
39050;SDS011;24805;55.852;37.644;2023-01-29T02:15:46;7.28;;;4.68;;
39050;SDS011;24805;55.852;37.644;2023-01-29T02:21:06;2.83;;;1.20;;
39050;SDS011;24805;55.852;37.644;2023-01-29T02:31:40;2.00;;;1.00;;
39050;SDS011;24805;55.852;37.644;2023-01-29T02:36:49;1.75;;;0.75;;
39050;SDS011;24805;55.852;37.644;2023-01-29T02:42:00;1.77;;;0.83;;
39050;SDS011;24805;55.852;37.644;2023-01-29T02:57:56;3.28;;;1.27;;
39050;SDS011;24805;55.852;37.644;2023-01-29T03:03:11;3.13;;;1.35;;
39050;SDS011;24805;55.852;37.644;2023-01-29T03:08:17;2.67;;;1.45;;
39050;SDS011;24805;55.852;37.644;2023-01-29T03:19:09;7.03;;;4.55;;
39050;SDS011;24805;55.852;37.644;2023-01-29T03:24:18;2.20;;;1.70;;
39050;SDS011;24805;55.852;37.644;2023-01-29T03:29:44;2.05;;;1.05;;
39050;SDS011;24805;55.852;37.644;2023-01-29T03:35:26;2.58;;;1.30;;
39050;SDS011;24805;55.852;37.644;2023-01-29T03:40:43;3.42;;;1.13;;
39050;SDS011;24805;55.852;37.644;2023-01-29T03:51:40;2.38;;;1.20;;
39050;SDS011;24805;55.852;37.644;2023-01-29T04:02:24;3.15;;;1.38;;
39050;SDS011;24805;55.852;37.644;2023-01-29T04:07:34;5.47;;;1.83;;
39050;SDS011;24805;55.852;37.644;2023-01-29T04:12:49;3.30;;;1.50;;
39050;SDS011;24805;55.852;37.644;2023-01-29T04:17:57;3.60;;;1.40;;
39050;SDS011;24805;55.852;37.644;2023-01-29T04:23:25;3.35;;;1.35;;
39050;SDS011;24805;55.852;37.644;2023-01-29T04:28:33;4.93;;;1.60;;
39050;SDS011;24805;55.852;37.644;2023-01-29T04:54:55;1.95;;;1.02;;
39050;SDS011;24805;55.852;37.644;2023-01-29T05:00:11;1.88;;;0.93;;
39050;SDS011;24805;55.852;37.644;2023-01-29T05:05:35;3.13;;;1.30;;
39050;SDS011;24805;55.852;37.644;2023-01-29T05:10:37;2.53;;;1.10;;
39050;SDS011;24805;55.852;37.644;2023-01-29T05:15:44;3.22;;;1.50;;
39050;SDS011;24805;55.852;37.644;2023-01-29T05:20:51;2.73;;;1.30;;
39050;SDS011;24805;55.852;37.644;2023-01-29T05:25:57;2.10;;;1.25;;
39050;SDS011;24805;55.852;37.644;2023-01-29T05:30:59;2.35;;;1.25;;
39050;SDS011;24805;55.852;37.644;2023-01-29T05:36:01;2.75;;;1.50;;
39050;SDS011;24805;55.852;37.644;2023-01-29T05:41:04;3.78;;;1.73;;
39050;SDS011;24805;55.852;37.644;2023-01-29T05:46:06;3.17;;;1.58;;
39050;SDS011;24805;55.852;37.644;2023-01-29T05:51:08;2.75;;;1.55;;
39050;SDS011;24805;55.852;37.644;2023-01-29T05:56:11;3.42;;;2.05;;
39050;SDS011;24805;55.852;37.644;2023-01-29T06:01:19;4.55;;;2.20;;
39050;SDS011;24805;55.852;37.644;2023-01-29T06:06:23;3.88;;;1.75;;
39050;SDS011;24805;55.852;37.644;2023-01-29T06:11:25;3.88;;;2.10;;
39050;SDS011;24805;55.852;37.644;2023-01-29T06:16:28;4.10;;;1.83;;
39050;SDS011;24805;55.852;37.644;2023-01-29T06:21:30;4.03;;;1.95;;
39050;SDS011;24805;55.852;37.644;2023-01-29T06:26:32;3.38;;;1.83;;
39050;SDS011;24805;55.852;37.644;2023-01-29T06:31:34;3.67;;;2.00;;
39050;SDS011;24805;55.852;37.644;2023-01-29T06:36:40;3.58;;;1.80;;
39050;SDS011;24805;55.852;37.644;2023-01-29T06:41:43;3.08;;;1.85;;
39050;SDS011;24805;55.852;37.644;2023-01-29T06:46:46;3.47;;;1.80;;
39050;SDS011;24805;55.852;37.644;2023-01-29T06:51:48;2.88;;;1.70;;
39050;SDS011;24805;55.852;37.644;2023-01-29T06:56:51;2.50;;;1.50;;
39050;SDS011;24805;55.852;37.644;2023-01-29T07:01:53;4.10;;;1.80;;
39050;SDS011;24805;55.852;37.644;2023-01-29T07:06:55;1.95;;;0.82;;
39050;SDS011;24805;55.852;37.644;2023-01-29T07:11:57;2.85;;;1.50;;
39050;SDS011;24805;55.852;37.644;2023-01-29T07:16:59;4.15;;;1.75;;
39050;SDS011;24805;55.852;37.644;2023-01-29T07:22:02;3.80;;;1.33;;
39050;SDS011;24805;55.852;37.644;2023-01-29T07:27:04;4.70;;;1.80;;
39050;SDS011;24805;55.852;37.644;2023-01-29T07:32:07;5.15;;;2.28;;
39050;SDS011;24805;55.852;37.644;2023-01-29T07:37:09;3.10;;;1.60;;
39050;SDS011;24805;55.852;37.644;2023-01-29T07:42:12;2.58;;;1.00;;
39050;SDS011;24805;55.852;37.644;2023-01-29T07:47:14;2.85;;;0.90;;
39050;SDS011;24805;55.852;37.644;2023-01-29T07:52:17;2.50;;;1.20;;
39050;SDS011;24805;55.852;37.644;2023-01-29T07:57:22;2.65;;;0.90;;
39050;SDS011;24805;55.852;37.644;2023-01-29T08:02:25;2.97;;;0.77;;
39050;SDS011;24805;55.852;37.644;2023-01-29T08:07:27;4.40;;;1.23;;
39050;SDS011;24805;55.852;37.644;2023-01-29T08:12:29;4.00;;;1.90;;
39050;SDS011;24805;55.852;37.644;2023-01-29T08:17:31;4.25;;;1.10;;
39050;SDS011;24805;55.852;37.644;2023-01-29T08:22:34;11.23;;;2.63;;
39050;SDS011;24805;55.852;37.644;2023-01-29T08:27:36;6.53;;;1.00;;
39050;SDS011;24805;55.852;37.644;2023-01-29T08:32:38;4.20;;;1.15;;
39050;SDS011;24805;55.852;37.644;2023-01-29T08:37:40;2.78;;;0.85;;
39050;SDS011;24805;55.852;37.644;2023-01-29T08:42:42;2.45;;;0.93;;
39050;SDS011;24805;55.852;37.644;2023-01-29T08:47:45;2.30;;;0.90;;
39050;SDS011;24805;55.852;37.644;2023-01-29T08:52:48;2.95;;;0.82;;
39050;SDS011;24805;55.852;37.644;2023-01-29T08:57:50;1.30;;;0.55;;
39050;SDS011;24805;55.852;37.644;2023-01-29T09:02:52;2.22;;;1.08;;
39050;SDS011;24805;55.852;37.644;2023-01-29T09:07:57;2.22;;;1.13;;
39050;SDS011;24805;55.852;37.644;2023-01-29T09:13:00;1.88;;;0.80;;
39050;SDS011;24805;55.852;37.644;2023-01-29T09:18:03;2.42;;;1.20;;
39050;SDS011;24805;55.852;37.644;2023-01-29T09:23:06;4.13;;;1.20;;
39050;SDS011;24805;55.852;37.644;2023-01-29T09:28:10;2.58;;;0.73;;
39050;SDS011;24805;55.852;37.644;2023-01-29T09:33:12;3.45;;;1.20;;
39050;SDS011;24805;55.852;37.644;2023-01-29T09:38:14;2.60;;;1.30;;
39050;SDS011;24805;55.852;37.644;2023-01-29T09:48:26;2.90;;;1.30;;
39050;SDS011;24805;55.852;37.644;2023-01-29T09:58:56;5.13;;;1.75;;
39050;SDS011;24805;55.852;37.644;2023-01-29T10:04:21;4.95;;;1.80;;
39050;SDS011;24805;55.852;37.644;2023-01-29T10:26:13;5.18;;;1.63;;
39050;SDS011;24805;55.852;37.644;2023-01-29T10:31:31;3.22;;;2.00;;
39050;SDS011;24805;55.852;37.644;2023-01-29T10:53:14;3.58;;;1.75;;
39050;SDS011;24805;55.852;37.644;2023-01-29T11:03:42;3.60;;;1.50;;
39050;SDS011;24805;55.852;37.644;2023-01-29T11:14:20;1.88;;;1.20;;
39050;SDS011;24805;55.852;37.644;2023-01-29T11:19:38;1.88;;;1.10;;
39050;SDS011;24805;55.852;37.644;2023-01-29T11:24:42;2.17;;;0.95;;
39050;SDS011;24805;55.852;37.644;2023-01-29T11:29:45;2.80;;;1.30;;
39050;SDS011;24805;55.852;37.644;2023-01-29T11:45:28;3.10;;;1.33;;
39050;SDS011;24805;55.852;37.644;2023-01-29T11:50:33;2.22;;;0.80;;
39050;SDS011;24805;55.852;37.644;2023-01-29T11:55:35;3.25;;;1.50;;
39050;SDS011;24805;55.852;37.644;2023-01-29T12:00:50;3.33;;;1.80;;
39050;SDS011;24805;55.852;37.644;2023-01-29T12:06:02;3.00;;;1.50;;
39050;SDS011;24805;55.852;37.644;2023-01-29T12:11:07;4.22;;;1.73;;
39050;SDS011;24805;55.852;37.644;2023-01-29T12:37:29;4.65;;;1.88;;
39050;SDS011;24805;55.852;37.644;2023-01-29T12:42:36;3.83;;;2.03;;
39050;SDS011;24805;55.852;37.644;2023-01-29T12:47:43;6.05;;;2.20;;
39050;SDS011;24805;55.852;37.644;2023-01-29T12:52:51;3.53;;;1.90;;
39050;SDS011;24805;55.852;37.644;2023-01-29T12:57:59;5.28;;;2.42;;
39050;SDS011;24805;55.852;37.644;2023-01-29T13:03:13;4.50;;;2.03;;
39050;SDS011;24805;55.852;37.644;2023-01-29T13:08:25;2.85;;;1.85;;
39050;SDS011;24805;55.852;37.644;2023-01-29T13:18:42;4.65;;;2.38;;
39050;SDS011;24805;55.852;37.644;2023-01-29T13:23:52;2.90;;;1.77;;
39050;SDS011;24805;55.852;37.644;2023-01-29T13:28:57;3.80;;;2.10;;
39050;SDS011;24805;55.852;37.644;2023-01-29T13:39:15;3.70;;;1.83;;
39050;SDS011;24805;55.852;37.644;2023-01-29T13:44:26;5.03;;;2.55;;
39050;SDS011;24805;55.852;37.644;2023-01-29T13:50:25;4.55;;;2.60;;
39050;SDS011;24805;55.852;37.644;2023-01-29T13:55:04;5.10;;;2.70;;
39050;SDS011;24805;55.852;37.644;2023-01-29T14:00:46;3.75;;;1.75;;
39050;SDS011;24805;55.852;37.644;2023-01-29T14:16:36;5.83;;;2.50;;
39050;SDS011;24805;55.852;37.644;2023-01-29T14:21:38;4.20;;;2.42;;
39050;SDS011;24805;55.852;37.644;2023-01-29T14:26:44;4.47;;;2.35;;
39050;SDS011;24805;55.852;37.644;2023-01-29T14:31:58;5.43;;;2.85;;
39050;SDS011;24805;55.852;37.644;2023-01-29T14:37:02;7.57;;;3.55;;
39050;SDS011;24805;55.852;37.644;2023-01-29T14:57:36;4.78;;;2.35;;
39050;SDS011;24805;55.852;37.644;2023-01-29T15:02:40;5.57;;;3.08;;
39050;SDS011;24805;55.852;37.644;2023-01-29T15:07:51;5.10;;;2.65;;
39050;SDS011;24805;55.852;37.644;2023-01-29T15:13:31;5.00;;;2.53;;
39050;SDS011;24805;55.852;37.644;2023-01-29T15:18:36;8.60;;;4.18;;
39050;SDS011;24805;55.852;37.644;2023-01-29T15:23:43;7.43;;;3.20;;
39050;SDS011;24805;55.852;37.644;2023-01-29T15:28:52;4.68;;;2.60;;
39050;SDS011;24805;55.852;37.644;2023-01-29T15:34:05;7.63;;;4.13;;
39050;SDS011;24805;55.852;37.644;2023-01-29T15:44:14;8.68;;;3.53;;
39050;SDS011;24805;55.852;37.644;2023-01-29T15:49:28;7.97;;;3.30;;
39050;SDS011;24805;55.852;37.644;2023-01-29T15:54:33;7.70;;;4.07;;
39050;SDS011;24805;55.852;37.644;2023-01-29T15:59:37;6.78;;;3.88;;
39050;SDS011;24805;55.852;37.644;2023-01-29T16:04:43;10.77;;;3.88;;
39050;SDS011;24805;55.852;37.644;2023-01-29T16:09:46;9.90;;;4.20;;
39050;SDS011;24805;55.852;37.644;2023-01-29T16:14:49;9.25;;;4.30;;
39050;SDS011;24805;55.852;37.644;2023-01-29T16:19:58;9.60;;;4.75;;
39050;SDS011;24805;55.852;37.644;2023-01-29T16:25:04;10.82;;;4.95;;
39050;SDS011;24805;55.852;37.644;2023-01-29T16:30:14;10.23;;;4.93;;
39050;SDS011;24805;55.852;37.644;2023-01-29T16:35:18;8.30;;;4.03;;
39050;SDS011;24805;55.852;37.644;2023-01-29T16:40:30;8.15;;;3.25;;
39050;SDS011;24805;55.852;37.644;2023-01-29T16:45:34;6.03;;;3.47;;
39050;SDS011;24805;55.852;37.644;2023-01-29T16:50:36;7.80;;;3.97;;
39050;SDS011;24805;55.852;37.644;2023-01-29T16:55:55;8.50;;;3.97;;
39050;SDS011;24805;55.852;37.644;2023-01-29T17:01:06;7.65;;;4.25;;
39050;SDS011;24805;55.852;37.644;2023-01-29T17:06:12;9.45;;;4.22;;
39050;SDS011;24805;55.852;37.644;2023-01-29T17:11:29;6.70;;;3.25;;
39050;SDS011;24805;55.852;37.644;2023-01-29T17:17:01;5.75;;;3.15;;
39050;SDS011;24805;55.852;37.644;2023-01-29T17:22:04;4.47;;;2.40;;
39050;SDS011;24805;55.852;37.644;2023-01-29T17:27:19;5.00;;;2.75;;
39050;SDS011;24805;55.852;37.644;2023-01-29T17:32:23;4.90;;;3.03;;
39050;SDS011;24805;55.852;37.644;2023-01-29T17:37:47;6.55;;;3.60;;
39050;SDS011;24805;55.852;37.644;2023-01-29T17:42:50;6.53;;;2.92;;
39050;SDS011;24805;55.852;37.644;2023-01-29T17:47:52;3.72;;;2.20;;
39050;SDS011;24805;55.852;37.644;2023-01-29T17:52:54;4.88;;;2.78;;
39050;SDS011;24805;55.852;37.644;2023-01-29T17:57:56;4.28;;;2.42;;
39050;SDS011;24805;55.852;37.644;2023-01-29T18:02:58;6.05;;;3.22;;
39050;SDS011;24805;55.852;37.644;2023-01-29T18:08:03;5.53;;;2.97;;
39050;SDS011;24805;55.852;37.644;2023-01-29T18:13:05;4.43;;;2.75;;
39050;SDS011;24805;55.852;37.644;2023-01-29T18:18:12;4.97;;;2.78;;
39050;SDS011;24805;55.852;37.644;2023-01-29T18:23:16;3.95;;;2.03;;
39050;SDS011;24805;55.852;37.644;2023-01-29T18:28:18;5.30;;;2.67;;
39050;SDS011;24805;55.852;37.644;2023-01-29T18:33:20;4.47;;;2.15;;
39050;SDS011;24805;55.852;37.644;2023-01-29T18:38:24;5.28;;;2.58;;
39050;SDS011;24805;55.852;37.644;2023-01-29T18:43:27;4.93;;;2.58;;
39050;SDS011;24805;55.852;37.644;2023-01-29T18:48:29;5.18;;;2.25;;
39050;SDS011;24805;55.852;37.644;2023-01-29T18:53:31;6.97;;;3.65;;
39050;SDS011;24805;55.852;37.644;2023-01-29T18:58:34;4.45;;;2.70;;
39050;SDS011;24805;55.852;37.644;2023-01-29T19:03:38;5.53;;;3.08;;
39050;SDS011;24805;55.852;37.644;2023-01-29T19:08:41;6.00;;;3.67;;
39050;SDS011;24805;55.852;37.644;2023-01-29T19:13:44;6.95;;;3.72;;
39050;SDS011;24805;55.852;37.644;2023-01-29T19:18:48;6.35;;;3.85;;
39050;SDS011;24805;55.852;37.644;2023-01-29T19:23:50;6.45;;;3.13;;
39050;SDS011;24805;55.852;37.644;2023-01-29T19:28:52;6.93;;;3.72;;
39050;SDS011;24805;55.852;37.644;2023-01-29T19:33:54;7.25;;;3.58;;
39050;SDS011;24805;55.852;37.644;2023-01-29T19:38:57;5.15;;;3.40;;
39050;SDS011;24805;55.852;37.644;2023-01-29T19:43:59;5.72;;;3.35;;
39050;SDS011;24805;55.852;37.644;2023-01-29T19:49:01;6.65;;;4.03;;
39050;SDS011;24805;55.852;37.644;2023-01-29T19:54:04;6.43;;;3.80;;
39050;SDS011;24805;55.852;37.644;2023-01-29T19:59:06;5.95;;;3.35;;
39050;SDS011;24805;55.852;37.644;2023-01-29T20:04:08;8.00;;;3.92;;
39050;SDS011;24805;55.852;37.644;2023-01-29T20:09:10;7.20;;;3.72;;
39050;SDS011;24805;55.852;37.644;2023-01-29T20:14:12;7.72;;;4.72;;
39050;SDS011;24805;55.852;37.644;2023-01-29T20:19:14;5.85;;;3.22;;
39050;SDS011;24805;55.852;37.644;2023-01-29T20:24:16;8.50;;;4.47;;
39050;SDS011;24805;55.852;37.644;2023-01-29T20:29:18;7.55;;;4.05;;
39050;SDS011;24805;55.852;37.644;2023-01-29T20:34:20;7.50;;;4.20;;
39050;SDS011;24805;55.852;37.644;2023-01-29T20:39:23;6.57;;;4.32;;
39050;SDS011;24805;55.852;37.644;2023-01-29T20:44:25;7.20;;;4.65;;
39050;SDS011;24805;55.852;37.644;2023-01-29T20:49:27;6.53;;;4.15;;
39050;SDS011;24805;55.852;37.644;2023-01-29T20:54:29;6.70;;;3.30;;
39050;SDS011;24805;55.852;37.644;2023-01-29T20:59:34;5.72;;;3.50;;
39050;SDS011;24805;55.852;37.644;2023-01-29T21:04:36;8.00;;;3.60;;
39050;SDS011;24805;55.852;37.644;2023-01-29T21:09:38;8.43;;;4.28;;
39050;SDS011;24805;55.852;37.644;2023-01-29T21:14:40;9.80;;;4.47;;
39050;SDS011;24805;55.852;37.644;2023-01-29T21:19:42;9.02;;;5.10;;
39050;SDS011;24805;55.852;37.644;2023-01-29T21:24:44;8.73;;;4.55;;
39050;SDS011;24805;55.852;37.644;2023-01-29T21:29:46;11.68;;;5.70;;
39050;SDS011;24805;55.852;37.644;2023-01-29T21:34:49;9.48;;;5.05;;
39050;SDS011;24805;55.852;37.644;2023-01-29T21:39:53;10.05;;;5.50;;
39050;SDS011;24805;55.852;37.644;2023-01-29T21:44:55;9.02;;;4.97;;
39050;SDS011;24805;55.852;37.644;2023-01-29T21:49:57;8.55;;;4.75;;
39050;SDS011;24805;55.852;37.644;2023-01-29T21:54:59;9.50;;;5.32;;
39050;SDS011;24805;55.852;37.644;2023-01-29T22:00:02;11.45;;;4.82;;
39050;SDS011;24805;55.852;37.644;2023-01-29T22:05:06;9.93;;;5.13;;
39050;SDS011;24805;55.852;37.644;2023-01-29T22:10:20;9.75;;;5.95;;
39050;SDS011;24805;55.852;37.644;2023-01-29T22:15:23;9.77;;;5.55;;
39050;SDS011;24805;55.852;37.644;2023-01-29T22:20:25;10.57;;;5.18;;
39050;SDS011;24805;55.852;37.644;2023-01-29T22:25:31;12.18;;;5.57;;
39050;SDS011;24805;55.852;37.644;2023-01-29T22:30:34;8.82;;;4.90;;
39050;SDS011;24805;55.852;37.644;2023-01-29T22:35:36;7.65;;;4.00;;
39050;SDS011;24805;55.852;37.644;2023-01-29T22:40:38;7.88;;;4.68;;
39050;SDS011;24805;55.852;37.644;2023-01-29T22:45:40;7.70;;;4.43;;
39050;SDS011;24805;55.852;37.644;2023-01-29T22:50:43;7.82;;;4.57;;
39050;SDS011;24805;55.852;37.644;2023-01-29T22:55:54;6.32;;;4.07;;
39050;SDS011;24805;55.852;37.644;2023-01-29T23:00:56;6.53;;;3.83;;
39050;SDS011;24805;55.852;37.644;2023-01-29T23:05:58;8.25;;;4.13;;
39050;SDS011;24805;55.852;37.644;2023-01-29T23:11:02;6.80;;;4.13;;
39050;SDS011;24805;55.852;37.644;2023-01-29T23:16:15;9.60;;;4.53;;
39050;SDS011;24805;55.852;37.644;2023-01-29T23:21:21;8.00;;;4.50;;
39050;SDS011;24805;55.852;37.644;2023-01-29T23:26:26;6.65;;;4.28;;
39050;SDS011;24805;55.852;37.644;2023-01-29T23:31:48;6.60;;;4.22;;
39050;SDS011;24805;55.852;37.644;2023-01-29T23:36:50;8.50;;;4.50;;
39050;SDS011;24805;55.852;37.644;2023-01-29T23:41:53;7.35;;;3.20;;
39050;SDS011;24805;55.852;37.644;2023-01-29T23:46:55;10.05;;;4.57;;
39050;SDS011;24805;55.852;37.644;2023-01-29T23:51:58;6.32;;;4.25;;
39050;SDS011;24805;55.852;37.644;2023-01-29T23:57:00;7.97;;;3.80;;
